Time;durP1;ratioP1;P1;durP2;ratioP2;P2;SDS_P1;SDS_P2;PMS_P1;PMS_P2;Temp;Humidity;BMP_temperature;BMP_pressure;BME280_temperature;BME280_humidity;BME280_pressure;Samples;Min_cycle;Max_cycle;Signal;HPM_P1;HPM_P2
2021/12/04 00:02:23;;;;;;;15.73;11.38;;;;;;;;;;5106625;27;20409;-83
2021/12/04 00:04:52;;;;;;;15.60;11.27;;;;;;;;;;5106868;27;20410;-83
2021/12/04 00:07:21;;;;;;;16.67;12.05;;;;;;;;;;5103629;27;20988;-83
2021/12/04 00:09:50;;;;;;;17.60;11.55;;;;;;;;;;5105763;27;20403;-84
2021/12/04 00:12:17;;;;;;;15.93;11.57;;;;;;;;;;5108408;27;20453;-83
2021/12/04 00:14:45;;;;;;;16.23;12.00;;;;;;;;;;5105869;28;20394;-83
2021/12/04 00:17:12;;;;;;;16.42;11.55;;;;;;;;;;5105935;27;20418;-83
2021/12/04 00:19:40;;;;;;;15.77;11.75;;;;;;;;;;5105598;28;20398;-83
2021/12/04 00:22:07;;;;;;;17.17;11.43;;;;;;;;;;5102525;27;20410;-83
2021/12/04 00:24:34;;;;;;;14.70;10.98;;;;;;;;;;5105534;27;20393;-83
2021/12/04 00:27:01;;;;;;;14.43;10.68;;;;;;;;;;5105807;27;20395;-83
2021/12/04 00:29:28;;;;;;;13.65;10.55;;;;;;;;;;5106373;28;20394;-83
2021/12/04 00:31:59;;;;;;;13.90;10.35;;;;;;;;;;5105549;27;20395;-83
2021/12/04 00:34:27;;;;;;;13.75;10.00;;;;;;;;;;5102886;27;20402;-83
2021/12/04 00:37:14;;;;;;;13.77;10.23;;;;;;;;;;5102825;28;20407;-83
2021/12/04 00:50:37;;;;;;;14.50;9.93;;;;;;;;;;5104715;28;20406;-83
2021/12/04 00:53:05;;;;;;;14.45;9.90;;;;;;;;;;5105307;27;20413;-82
2021/12/04 00:55:32;;;;;;;13.38;9.35;;;;;;;;;;5106136;27;20425;-83
2021/12/04 00:57:59;;;;;;;13.18;9.93;;;;;;;;;;5106191;28;20431;-83
2021/12/04 01:00:26;;;;;;;12.82;9.60;;;;;;;;;;5109721;28;20874;-83
2021/12/04 01:02:53;;;;;;;12.32;8.95;;;;;;;;;;5105907;28;20443;-83
2021/12/04 01:05:20;;;;;;;12.27;9.60;;;;;;;;;;5104934;28;20840;-83
2021/12/04 01:07:46;;;;;;;12.95;9.55;;;;;;;;;;5105231;28;20395;-83
2021/12/04 01:10:15;;;;;;;13.10;9.38;;;;;;;;;;5102381;28;20406;-83
2021/12/04 01:12:43;;;;;;;13.52;9.63;;;;;;;;;;5104936;28;20410;-82
2021/12/04 01:15:10;;;;;;;13.07;9.50;;;;;;;;;;5105274;28;20390;-83
2021/12/04 01:17:37;;;;;;;12.13;9.43;;;;;;;;;;5106625;28;20420;-82
2021/12/04 01:20:05;;;;;;;13.05;9.35;;;;;;;;;;5106388;28;20402;-83
2021/12/04 01:22:33;;;;;;;13.63;9.20;;;;;;;;;;5104682;28;20429;-83
2021/12/04 01:25:00;;;;;;;11.55;9.02;;;;;;;;;;5106489;28;20402;-83
2021/12/04 01:27:28;;;;;;;13.13;8.93;;;;;;;;;;5109561;28;20395;-83
2021/12/04 01:29:55;;;;;;;13.55;9.13;;;;;;;;;;5106569;28;20413;-82
2021/12/04 01:32:22;;;;;;;11.43;8.75;;;;;;;;;;5106668;28;20430;-83
2021/12/04 01:34:49;;;;;;;12.60;9.02;;;;;;;;;;5106392;28;20402;-83
2021/12/04 01:37:16;;;;;;;13.05;9.40;;;;;;;;;;5105293;27;20410;-83
2021/12/04 01:39:43;;;;;;;12.38;8.50;;;;;;;;;;5109975;27;20426;-83
2021/12/04 01:42:10;;;;;;;14.23;8.73;;;;;;;;;;5112000;27;20395;-83
2021/12/04 01:44:38;;;;;;;13.27;8.82;;;;;;;;;;5110478;27;20388;-83
2021/12/04 01:47:13;;;;;;;10.95;8.60;;;;;;;;;;5110794;27;20404;-83
2021/12/04 01:49:39;;;;;;;12.80;9.30;;;;;;;;;;5109517;27;20954;-83
2021/12/04 01:52:07;;;;;;;14.82;8.88;;;;;;;;;;5108223;27;20449;-82
2021/12/04 01:54:34;;;;;;;13.80;9.88;;;;;;;;;;5110527;27;20759;-83
2021/12/04 01:57:01;;;;;;;13.25;9.30;;;;;;;;;;5111200;27;20410;-83
2021/12/04 01:59:28;;;;;;;13.98;9.50;;;;;;;;;;5110529;27;20398;-83
2021/12/04 02:01:57;;;;;;;13.32;9.20;;;;;;;;;;5111630;27;20872;-83
2021/12/04 02:04:24;;;;;;;13.60;9.35;;;;;;;;;;5109077;27;21359;-83
2021/12/04 02:06:51;;;;;;;14.70;9.32;;;;;;;;;;5107624;27;20402;-83
2021/12/04 02:09:17;;;;;;;14.98;9.93;;;;;;;;;;5113483;27;20421;-82
2021/12/04 02:11:45;;;;;;;15.10;9.90;;;;;;;;;;5105510;27;20735;-83
2021/12/04 02:14:13;;;;;;;13.05;9.30;;;;;;;;;;5107593;28;20474;-83
2021/12/04 02:16:39;;;;;;;14.07;9.20;;;;;;;;;;5108462;27;20972;-83
2021/12/04 02:19:08;;;;;;;15.50;9.80;;;;;;;;;;5109710;27;20404;-82
2021/12/04 02:21:36;;;;;;;14.57;9.52;;;;;;;;;;5107549;27;20436;-83
2021/12/04 02:24:03;;;;;;;12.90;9.40;;;;;;;;;;5113614;27;20405;-83
2021/12/04 02:26:30;;;;;;;14.85;10.07;;;;;;;;;;5114907;27;20406;-82
2021/12/04 02:28:57;;;;;;;13.82;9.35;;;;;;;;;;5119354;27;20407;-83
2021/12/04 02:31:24;;;;;;;15.18;9.35;;;;;;;;;;5135038;27;20398;-82
2021/12/04 02:33:51;;;;;;;14.45;9.75;;;;;;;;;;5115050;27;20406;-82
2021/12/04 02:36:18;;;;;;;14.63;9.75;;;;;;;;;;5105469;27;20407;-82
2021/12/04 02:38:51;;;;;;;12.60;9.23;;;;;;;;;;5101298;27;20512;-82
2021/12/04 02:41:18;;;;;;;14.00;9.88;;;;;;;;;;5107039;27;20397;-82
2021/12/04 02:43:46;;;;;;;14.83;9.90;;;;;;;;;;5107935;27;20395;-83
2021/12/04 02:46:13;;;;;;;13.48;9.68;;;;;;;;;;5106995;27;20493;-82
2021/12/04 02:48:41;;;;;;;14.52;9.45;;;;;;;;;;5103095;27;20814;-83
2021/12/04 02:51:08;;;;;;;13.77;9.55;;;;;;;;;;5108964;27;20401;-83
2021/12/04 02:53:35;;;;;;;14.17;9.53;;;;;;;;;;5104531;27;20445;-82
2021/12/04 02:56:05;;;;;;;13.45;9.32;;;;;;;;;;5100289;27;20459;-83
2021/12/04 02:58:32;;;;;;;14.23;9.95;;;;;;;;;;5098329;27;20804;-84
2021/12/04 03:01:00;;;;;;;12.65;9.85;;;;;;;;;;5104968;27;20403;-84
2021/12/04 03:03:27;;;;;;;14.10;9.77;;;;;;;;;;5112590;27;20459;-84
2021/12/04 03:05:54;;;;;;;14.00;9.57;;;;;;;;;;5111174;27;20410;-84
2021/12/04 03:08:22;;;;;;;13.02;9.15;;;;;;;;;;5113930;27;20390;-84
2021/12/04 03:10:49;;;;;;;14.35;9.93;;;;;;;;;;5113864;27;20405;-83
2021/12/04 03:13:20;;;;;;;14.00;10.02;;;;;;;;;;5111671;27;20395;-84
2021/12/04 03:15:55;;;;;;;14.63;10.25;;;;;;;;;;5116049;27;20402;-84
2021/12/04 03:18:22;;;;;;;13.85;10.30;;;;;;;;;;5109887;27;20418;-84
2021/12/04 03:20:51;;;;;;;13.68;10.02;;;;;;;;;;5105014;27;20771;-84
2021/12/04 03:23:25;;;;;;;13.40;10.00;;;;;;;;;;5110717;27;20397;-84
2021/12/04 03:25:54;;;;;;;13.02;9.35;;;;;;;;;;5109891;27;20404;-83
2021/12/04 03:28:23;;;;;;;13.83;9.87;;;;;;;;;;5107455;27;20458;-84
2021/12/04 03:30:52;;;;;;;13.82;9.68;;;;;;;;;;5117682;27;20400;-83
2021/12/04 03:41:33;;;;;;;13.85;9.75;;;;;;;;;;5117887;27;20995;-84
2021/12/04 03:44:01;;;;;;;15.55;10.10;;;;;;;;;;5116347;27;20391;-83
2021/12/04 03:46:28;;;;;;;13.57;9.73;;;;;;;;;;5119299;27;20393;-84
2021/12/04 03:48:55;;;;;;;14.73;10.10;;;;;;;;;;5118380;27;20398;-83
2021/12/04 03:51:22;;;;;;;13.43;10.23;;;;;;;;;;5114866;27;20480;-83
2021/12/04 03:53:51;;;;;;;12.98;9.93;;;;;;;;;;5117884;27;20393;-84
2021/12/04 03:56:22;;;;;;;13.32;10.00;;;;;;;;;;5115033;27;20400;-83
2021/12/04 03:58:49;;;;;;;14.70;10.43;;;;;;;;;;5118577;27;20902;-84
2021/12/04 04:01:18;;;;;;;13.20;9.73;;;;;;;;;;5117302;27;20489;-84
2021/12/04 04:03:44;;;;;;;14.73;9.77;;;;;;;;;;5113503;27;20406;-83
2021/12/04 04:06:11;;;;;;;13.10;9.40;;;;;;;;;;5110120;27;20397;-83
2021/12/04 04:08:38;;;;;;;14.88;10.20;;;;;;;;;;5111633;27;20397;-84
2021/12/04 04:11:05;;;;;;;14.05;9.98;;;;;;;;;;5116732;27;20418;-83
2021/12/04 04:13:32;;;;;;;14.50;9.38;;;;;;;;;;5116473;27;20401;-84
2021/12/04 04:16:00;;;;;;;14.68;9.40;;;;;;;;;;5118146;27;20404;-83
2021/12/04 04:18:31;;;;;;;14.05;9.20;;;;;;;;;;5117562;27;20421;-84
2021/12/04 04:20:59;;;;;;;14.60;9.77;;;;;;;;;;5114439;27;20402;-83
2021/12/04 04:23:25;;;;;;;12.90;9.07;;;;;;;;;;5117906;27;20458;-82
2021/12/04 04:25:52;;;;;;;13.40;9.48;;;;;;;;;;5117505;27;20406;-82
2021/12/04 04:28:20;;;;;;;13.68;9.43;;;;;;;;;;5116329;27;20507;-83
2021/12/04 04:30:46;;;;;;;13.00;9.00;;;;;;;;;;5115477;27;20868;-84
2021/12/04 04:33:14;;;;;;;13.35;9.20;;;;;;;;;;5114754;27;20414;-83
2021/12/04 04:35:45;;;;;;;15.73;9.43;;;;;;;;;;5110514;27;20423;-83
2021/12/04 04:38:22;;;;;;;13.50;9.48;;;;;;;;;;5109987;27;20426;-82
2021/12/04 04:57:44;;;;;;;14.00;9.18;;;;;;;;;;5114560;27;20941;-83
2021/12/04 05:11:18;;;;;;;13.82;9.43;;;;;;;;;;5109693;27;20420;-83
2021/12/04 05:13:45;;;;;;;17.35;10.10;;;;;;;;;;5111181;27;20406;-83
2021/12/04 05:16:14;;;;;;;15.25;9.57;;;;;;;;;;5114492;27;20472;-83
2021/12/04 05:18:50;;;;;;;14.40;10.13;;;;;;;;;;5110241;27;20447;-84
2021/12/04 05:21:17;;;;;;;16.52;10.10;;;;;;;;;;5108424;27;20898;-83
2021/12/04 05:23:48;;;;;;;16.48;10.57;;;;;;;;;;5116804;27;20398;-83
2021/12/04 05:26:17;;;;;;;15.05;9.75;;;;;;;;;;5108893;27;20405;-83
2021/12/04 05:28:44;;;;;;;14.98;9.73;;;;;;;;;;5137334;27;20410;-83
2021/12/04 05:31:11;;;;;;;14.95;9.93;;;;;;;;;;5119781;27;20396;-83
2021/12/04 05:33:39;;;;;;;13.85;9.70;;;;;;;;;;5114063;27;20405;-83
2021/12/04 05:36:07;;;;;;;14.97;9.63;;;;;;;;;;5108433;27;20404;-81
2021/12/04 05:38:34;;;;;;;15.00;10.10;;;;;;;;;;5109354;27;20416;-83
2021/12/04 05:41:02;;;;;;;15.75;10.18;;;;;;;;;;5114035;27;20402;-83
2021/12/04 05:43:29;;;;;;;13.77;9.30;;;;;;;;;;5110579;27;20553;-83
2021/12/04 05:46:02;;;;;;;20.42;15.98;;;;;;;;;;5113084;27;20739;-83
2021/12/04 05:48:41;;;;;;;15.05;9.85;;;;;;;;;;5112185;27;20402;-84
2021/12/04 05:51:37;;;;;;;17.02;10.05;;;;;;;;;;5109959;27;20401;-83
2021/12/04 05:54:07;;;;;;;14.90;9.80;;;;;;;;;;5111594;27;20406;-83
2021/12/04 05:56:36;;;;;;;15.57;9.77;;;;;;;;;;5109636;27;20481;-83
2021/12/04 05:59:05;;;;;;;16.73;10.67;;;;;;;;;;5110491;27;20491;-83
2021/12/04 06:01:32;;;;;;;16.13;10.82;;;;;;;;;;5112373;27;20449;-83
2021/12/04 06:03:59;;;;;;;16.48;10.75;;;;;;;;;;5109857;27;20405;-84
2021/12/04 06:06:27;;;;;;;15.43;10.00;;;;;;;;;;5104998;27;20404;-83
2021/12/04 06:08:54;;;;;;;16.70;10.38;;;;;;;;;;5107915;27;20423;-83
2021/12/04 06:11:21;;;;;;;16.52;10.65;;;;;;;;;;5110871;27;20394;-83
2021/12/04 06:13:49;;;;;;;16.00;10.53;;;;;;;;;;5105115;27;20406;-85
2021/12/04 06:16:17;;;;;;;15.43;10.45;;;;;;;;;;5100954;27;20413;-85
2021/12/04 06:18:46;;;;;;;18.27;11.25;;;;;;;;;;5095686;27;20416;-85
2021/12/04 06:24:03;;;;;;;19.07;12.30;;;;;;;;;;5104954;27;20994;-84
2021/12/04 06:26:31;;;;;;;18.77;12.63;;;;;;;;;;5104430;27;20394;-85
2021/12/04 06:28:59;;;;;;;20.02;13.15;;;;;;;;;;5102979;27;20398;-84
2021/12/04 06:31:26;;;;;;;44.95;25.60;;;;;;;;;;5104582;27;20402;-83
2021/12/04 06:33:53;;;;;;;39.13;22.48;;;;;;;;;;5107067;27;20406;-84
2021/12/04 06:36:22;;;;;;;33.50;20.10;;;;;;;;;;5104568;27;20413;-83
2021/12/04 06:38:49;;;;;;;22.02;13.02;;;;;;;;;;5100252;27;20414;-83
2021/12/04 06:41:16;;;;;;;19.83;12.20;;;;;;;;;;5104370;27;20488;-85
2021/12/04 06:43:47;;;;;;;19.02;12.35;;;;;;;;;;5104100;27;20398;-87
2021/12/04 06:46:16;;;;;;;19.40;13.50;;;;;;;;;;5104089;27;20398;-85
2021/12/04 06:48:49;;;;;;;25.17;18.58;;;;;;;;;;5099992;27;20765;-85
2021/12/04 06:51:23;;;;;;;26.67;18.35;;;;;;;;;;5106005;27;20402;-85
2021/12/04 06:53:55;;;;;;;17.63;12.20;;;;;;;;;;5107025;27;21213;-84
2021/12/04 06:56:23;;;;;;;21.70;14.15;;;;;;;;;;5107967;27;20465;-84
2021/12/04 06:58:52;;;;;;;21.67;14.45;;;;;;;;;;5105141;27;20438;-84
2021/12/04 07:01:20;;;;;;;20.75;14.68;;;;;;;;;;5108860;27;20482;-85
2021/12/04 07:03:47;;;;;;;22.13;14.65;;;;;;;;;;5107205;27;20402;-85
2021/12/04 07:06:14;;;;;;;19.13;12.27;;;;;;;;;;5105719;27;20408;-84
2021/12/04 07:08:41;;;;;;;19.92;12.25;;;;;;;;;;5105019;27;20408;-84
2021/12/04 07:11:08;;;;;;;23.23;12.38;;;;;;;;;;5108895;27;20467;-85
2021/12/04 07:13:35;;;;;;;20.15;12.60;;;;;;;;;;5109258;27;20407;-84
2021/12/04 07:16:04;;;;;;;21.53;13.47;;;;;;;;;;5109373;27;20401;-85
2021/12/04 07:18:34;;;;;;;21.73;12.90;;;;;;;;;;5108438;27;20411;-85
2021/12/04 07:21:01;;;;;;;21.25;13.00;;;;;;;;;;5103591;27;20439;-84
2021/12/04 07:23:28;;;;;;;19.90;12.95;;;;;;;;;;5103762;27;20462;-85
2021/12/04 07:25:56;;;;;;;20.63;13.33;;;;;;;;;;5108520;27;20406;-85
2021/12/04 07:28:23;;;;;;;20.70;13.27;;;;;;;;;;5104285;27;20402;-85
2021/12/04 07:30:49;;;;;;;23.65;13.57;;;;;;;;;;5107657;27;20395;-84
2021/12/04 07:33:17;;;;;;;22.60;13.60;;;;;;;;;;5112385;27;21054;-84
2021/12/04 07:35:45;;;;;;;25.42;13.68;;;;;;;;;;5104135;28;20414;-85
2021/12/04 07:38:14;;;;;;;20.15;13.30;;;;;;;;;;5105774;28;20413;-85
2021/12/04 07:40:41;;;;;;;20.00;12.18;;;;;;;;;;5106301;27;20435;-85
2021/12/04 07:43:08;;;;;;;21.25;12.35;;;;;;;;;;5107353;27;20403;-84
2021/12/04 07:45:35;;;;;;;21.40;13.05;;;;;;;;;;5103912;27;20407;-85
2021/12/04 07:48:02;;;;;;;21.70;13.35;;;;;;;;;;5109772;27;20422;-84
2021/12/04 07:50:30;;;;;;;20.10;13.10;;;;;;;;;;5105385;27;20406;-88
2021/12/04 07:52:59;;;;;;;21.05;13.32;;;;;;;;;;5110015;27;20403;-85
2021/12/04 07:55:26;;;;;;;20.77;13.18;;;;;;;;;;5105034;27;20451;-84
2021/12/04 07:57:54;;;;;;;21.92;13.43;;;;;;;;;;5108793;27;20406;-88
2021/12/04 08:00:22;;;;;;;21.90;13.63;;;;;;;;;;5107344;27;20422;-86
2021/12/04 08:02:50;;;;;;;22.98;13.25;;;;;;;;;;5107909;27;20906;-85
2021/12/04 08:05:18;;;;;;;22.15;13.85;;;;;;;;;;5106463;27;20393;-87
2021/12/04 08:07:45;;;;;;;21.95;13.98;;;;;;;;;;5105172;27;20398;-86
2021/12/04 08:10:16;;;;;;;22.30;14.02;;;;;;;;;;5108259;27;20396;-86
2021/12/04 08:12:43;;;;;;;22.90;13.97;;;;;;;;;;5100241;28;20403;-85
2021/12/04 08:15:12;;;;;;;18.88;12.25;;;;;;;;;;5110469;27;20397;-86
2021/12/04 08:17:39;;;;;;;20.17;12.90;;;;;;;;;;5106870;27;20400;-86
2021/12/04 08:20:07;;;;;;;20.15;13.30;;;;;;;;;;5112139;27;20406;-85
2021/12/04 08:22:34;;;;;;;19.08;12.75;;;;;;;;;;5110703;27;20472;-86
2021/12/04 08:25:02;;;;;;;21.08;13.35;;;;;;;;;;5114264;27;20401;-84
2021/12/04 08:27:30;;;;;;;20.70;14.30;;;;;;;;;;5115904;27;20374;-87
2021/12/04 08:29:57;;;;;;;21.05;14.20;;;;;;;;;;5120478;27;20509;-86
2021/12/04 08:32:24;;;;;;;20.35;13.52;;;;;;;;;;5108295;27;20398;-87
2021/12/04 08:34:51;;;;;;;19.35;11.88;;;;;;;;;;5106779;27;20481;-85
2021/12/04 08:37:19;;;;;;;23.05;11.98;;;;;;;;;;5104280;27;20422;-86
2021/12/04 08:39:47;;;;;;;19.67;11.02;;;;;;;;;;5109396;27;20421;-86
2021/12/04 08:42:14;;;;;;;16.25;10.82;;;;;;;;;;5106440;27;20410;-86
2021/12/04 08:44:43;;;;;;;19.98;11.43;;;;;;;;;;5106756;27;20396;-86
2021/12/04 08:47:10;;;;;;;19.30;11.38;;;;;;;;;;5104153;27;20480;-87
2021/12/04 08:49:37;;;;;;;19.50;11.98;;;;;;;;;;5099625;28;20416;-85
2021/12/04 08:52:05;;;;;;;15.95;10.60;;;;;;;;;;5105676;27;20418;-86
2021/12/04 08:54:32;;;;;;;12.27;8.80;;;;;;;;;;5105342;27;20906;-86
2021/12/04 08:57:01;;;;;;;11.98;8.13;;;;;;;;;;5104714;27;20900;-86
2021/12/04 08:59:29;;;;;;;11.30;7.70;;;;;;;;;;5109304;27;20414;-85
2021/12/04 09:01:57;;;;;;;14.20;9.77;;;;;;;;;;5103533;28;20456;-86
2021/12/04 09:04:27;;;;;;;12.43;8.45;;;;;;;;;;5106092;28;21253;-85
2021/12/04 09:06:55;;;;;;;14.60;8.90;;;;;;;;;;5105334;28;20493;-86
2021/12/04 09:09:24;;;;;;;12.18;8.88;;;;;;;;;;5104876;27;20390;-85
2021/12/04 09:11:55;;;;;;;10.50;7.32;;;;;;;;;;5104617;27;20398;-85
2021/12/04 09:14:25;;;;;;;10.88;7.80;;;;;;;;;;5104656;27;20395;-87
2021/12/04 09:16:53;;;;;;;13.00;7.67;;;;;;;;;;5105057;27;20398;-85
2021/12/04 09:19:23;;;;;;;10.45;7.25;;;;;;;;;;5103208;28;20398;-86
2021/12/04 09:21:50;;;;;;;12.98;9.30;;;;;;;;;;5104115;28;20433;-86
2021/12/04 09:24:25;;;;;;;16.95;10.40;;;;;;;;;;5109716;27;20397;-86
2021/12/04 09:26:57;;;;;;;16.17;10.32;;;;;;;;;;5108892;28;20754;-86
2021/12/04 09:29:42;;;;;;;13.77;9.52;;;;;;;;;;5105607;28;20956;-86
2021/12/04 09:32:50;;;;;;;11.48;8.70;;;;;;;;;;5108000;28;20914;-87
2021/12/04 10:00:17;;;;;;;9.15;7.00;;;;;;;;;;5108832;27;20402;-83
2021/12/04 10:03:07;;;;;;;9.68;6.72;;;;;;;;;;5110307;27;20409;-84
2021/12/04 10:14:21;;;;;;;7.97;6.68;;;;;;;;;;5060719;28;20471;-85
2021/12/04 10:19:48;;;;;;;9.55;7.53;;;;;;;;;;5106864;27;20411;-84
2021/12/04 10:22:24;;;;;;;10.20;7.55;;;;;;;;;;5107889;27;20407;-85
2021/12/04 10:32:01;;;;;;;71.38;10.60;;;;;;;;;;5108425;27;20403;-75
2021/12/04 10:33:46;;;;;;;8.77;6.10;;;;;;;;;;5119478;27;20390;-81
2021/12/04 10:36:14;;;;;;;9.80;8.20;;;;;;;;;;5107363;27;20454;-83
2021/12/04 10:38:43;;;;;;;7.75;6.50;;;;;;;;;;5103241;27;20405;-82
2021/12/04 10:41:12;;;;;;;8.18;6.38;;;;;;;;;;5114797;27;20417;-82
2021/12/04 10:43:40;;;;;;;8.68;6.85;;;;;;;;;;5101827;27;20394;-83
2021/12/04 10:46:13;;;;;;;12.27;9.18;;;;;;;;;;5112947;27;20882;-83
2021/12/04 10:48:47;;;;;;;7.25;5.97;;;;;;;;;;5106712;27;20405;-83
2021/12/04 10:51:24;;;;;;;8.77;6.25;;;;;;;;;;5108632;27;20433;-82
2021/12/04 10:53:55;;;;;;;9.80;7.40;;;;;;;;;;5107400;27;20432;-83
2021/12/04 10:56:37;;;;;;;10.30;6.55;;;;;;;;;;5108148;27;20460;-82
2021/12/04 10:59:17;;;;;;;9.67;6.80;;;;;;;;;;5110069;27;20403;-82
2021/12/04 11:02:00;;;;;;;9.77;6.67;;;;;;;;;;5106263;27;20533;-77
2021/12/04 11:04:36;;;;;;;8.73;6.95;;;;;;;;;;5105174;27;20403;-84
2021/12/04 11:24:11;;;;;;;9.63;6.55;;;;;;;;;;5110666;27;20413;-83
2021/12/04 11:26:55;;;;;;;9.35;6.63;;;;;;;;;;5110049;27;20444;-84
2021/12/04 11:35:32;;;;;;;9.25;6.90;;;;;;;;;;5083308;27;20448;-83
2021/12/04 11:38:09;;;;;;;9.20;7.43;;;;;;;;;;5108283;27;20398;-83
2021/12/04 11:43:28;;;;;;;9.67;7.50;;;;;;;;;;5109748;27;20436;-84
2021/12/04 11:46:13;;;;;;;9.13;7.32;;;;;;;;;;5099653;27;20435;-82
2021/12/04 11:48:41;;;;;;;8.93;7.25;;;;;;;;;;5109161;27;20405;-83
2021/12/04 11:51:13;;;;;;;7.95;6.60;;;;;;;;;;5105865;27;20837;-81
2021/12/04 11:53:40;;;;;;;8.13;7.00;;;;;;;;;;5105413;27;20456;-84
2021/12/04 11:56:15;;;;;;;9.90;8.35;;;;;;;;;;5106820;27;20408;-83
2021/12/04 11:58:45;;;;;;;9.15;7.07;;;;;;;;;;5108477;27;20852;-84
2021/12/04 12:01:28;;;;;;;11.20;7.72;;;;;;;;;;5107853;27;20481;-84
2021/12/04 12:03:56;;;;;;;9.25;7.82;;;;;;;;;;5107522;27;20403;-83
2021/12/04 12:06:32;;;;;;;8.48;7.13;;;;;;;;;;5105682;27;21254;-86
2021/12/04 12:09:14;;;;;;;8.87;7.33;;;;;;;;;;5106450;27;20498;-83
2021/12/04 12:11:53;;;;;;;9.73;7.23;;;;;;;;;;5102164;27;20433;-82
2021/12/04 12:14:23;;;;;;;10.30;6.80;;;;;;;;;;5102566;27;20442;-86
2021/12/04 12:16:54;;;;;;;9.82;7.13;;;;;;;;;;5107814;27;20450;-82
2021/12/04 12:19:27;;;;;;;9.75;8.32;;;;;;;;;;5102393;27;20402;-83
2021/12/04 12:21:58;;;;;;;8.07;6.75;;;;;;;;;;5105594;27;20425;-83
2021/12/04 12:27:24;;;;;;;7.10;6.40;;;;;;;;;;5096855;27;20929;-83
2021/12/04 12:38:33;;;;;;;10.25;6.97;;;;;;;;;;5101386;27;20409;-82
2021/12/04 12:41:04;;;;;;;8.20;6.38;;;;;;;;;;5102627;27;20423;-81
2021/12/04 12:43:44;;;;;;;9.30;7.00;;;;;;;;;;5100283;27;20438;-82
2021/12/04 12:46:11;;;;;;;9.65;7.10;;;;;;;;;;5108777;27;20933;-82
2021/12/04 12:48:50;;;;;;;9.80;7.07;;;;;;;;;;5099280;27;20419;-83
2021/12/04 12:51:25;;;;;;;9.93;7.05;;;;;;;;;;5102027;27;20405;-82
2021/12/04 12:53:52;;;;;;;8.43;7.10;;;;;;;;;;5098830;27;20412;-83
2021/12/04 12:56:27;;;;;;;9.30;7.28;;;;;;;;;;5099993;28;20486;-82
2021/12/04 12:59:03;;;;;;;9.27;7.45;;;;;;;;;;5099989;28;20470;-81
2021/12/04 13:13:27;;;;;;;8.65;7.28;;;;;;;;;;5104749;28;20445;-83
2021/12/04 13:16:04;;;;;;;9.20;7.38;;;;;;;;;;5105675;28;20487;-83
2021/12/04 13:18:32;;;;;;;8.63;6.95;;;;;;;;;;5103942;28;20414;-81
2021/12/04 13:21:02;;;;;;;7.90;6.57;;;;;;;;;;5108172;28;20494;-82
2021/12/04 13:23:30;;;;;;;9.25;7.50;;;;;;;;;;5098250;28;20403;-83
2021/12/04 13:25:59;;;;;;;10.25;7.85;;;;;;;;;;5103414;28;20409;-83
2021/12/04 13:28:30;;;;;;;9.23;7.28;;;;;;;;;;5101221;28;20395;-82
2021/12/04 13:31:00;;;;;;;11.55;8.10;;;;;;;;;;5110659;28;20757;-78
2021/12/04 13:33:27;;;;;;;10.90;7.35;;;;;;;;;;5114833;27;20452;-83
2021/12/04 13:35:54;;;;;;;10.10;7.43;;;;;;;;;;5106275;27;20427;-83
2021/12/04 13:38:26;;;;;;;11.60;7.40;;;;;;;;;;5105276;27;20398;-82
2021/12/04 13:40:54;;;;;;;12.18;7.93;;;;;;;;;;5107485;27;20416;-82
2021/12/04 13:43:22;;;;;;;11.38;8.23;;;;;;;;;;5110458;27;20459;-83
2021/12/04 13:46:00;;;;;;;10.52;7.50;;;;;;;;;;5111866;27;20402;-87
2021/12/04 13:48:28;;;;;;;11.73;7.85;;;;;;;;;;5113427;27;20400;-80
2021/12/04 13:50:55;;;;;;;10.65;7.40;;;;;;;;;;5111435;27;20402;-84
2021/12/04 13:53:26;;;;;;;11.77;7.60;;;;;;;;;;5112027;27;20839;-83
2021/12/04 13:55:56;;;;;;;12.40;8.23;;;;;;;;;;5107135;27;20664;-84
2021/12/04 13:58:23;;;;;;;9.88;7.78;;;;;;;;;;5108692;27;20394;-83
2021/12/04 14:00:51;;;;;;;11.18;8.20;;;;;;;;;;5113506;27;20413;-81
2021/12/04 14:03:24;;;;;;;10.82;8.35;;;;;;;;;;5104366;28;20766;-83
2021/12/04 14:05:51;;;;;;;10.40;7.75;;;;;;;;;;5109479;27;20405;-84
2021/12/04 14:08:19;;;;;;;10.27;8.40;;;;;;;;;;5106341;27;20389;-83
2021/12/04 14:10:48;;;;;;;11.18;7.90;;;;;;;;;;5109320;27;20885;-83
2021/12/04 14:13:20;;;;;;;10.55;8.30;;;;;;;;;;5106188;27;20393;-83
2021/12/04 14:15:48;;;;;;;10.35;8.70;;;;;;;;;;5103793;27;20547;-84
2021/12/04 14:18:17;;;;;;;11.63;8.43;;;;;;;;;;5104754;27;20496;-82
2021/12/04 14:20:48;;;;;;;12.75;9.40;;;;;;;;;;5102113;27;20398;-83
2021/12/04 14:23:16;;;;;;;11.20;8.90;;;;;;;;;;5111413;27;20408;-83
2021/12/04 14:25:44;;;;;;;10.15;8.40;;;;;;;;;;5109898;27;21060;-81
2021/12/04 14:28:14;;;;;;;12.43;8.07;;;;;;;;;;5105637;27;20501;-82
2021/12/04 14:30:45;;;;;;;12.23;8.32;;;;;;;;;;5106425;28;20395;-83
2021/12/04 14:33:15;;;;;;;9.30;7.30;;;;;;;;;;5116745;27;20449;-83
2021/12/04 14:35:44;;;;;;;9.07;7.13;;;;;;;;;;5105185;27;20493;-83
2021/12/04 14:38:13;;;;;;;10.50;7.07;;;;;;;;;;5105986;28;20422;-82
2021/12/04 14:40:43;;;;;;;8.23;6.95;;;;;;;;;;5108444;27;20404;-83
2021/12/04 14:43:12;;;;;;;9.43;6.90;;;;;;;;;;5111781;27;20736;-82
2021/12/04 14:45:43;;;;;;;8.90;7.30;;;;;;;;;;5114044;27;20448;-81
2021/12/04 14:48:12;;;;;;;11.70;7.60;;;;;;;;;;5106895;27;20427;-82
2021/12/04 14:50:42;;;;;;;8.95;7.63;;;;;;;;;;5111371;27;20410;-83
2021/12/04 14:53:12;;;;;;;9.30;7.50;;;;;;;;;;5111366;27;20403;-82
2021/12/04 14:55:41;;;;;;;8.88;7.00;;;;;;;;;;5108053;27;20414;-82
2021/12/04 14:58:13;;;;;;;8.63;7.55;;;;;;;;;;5111558;27;20930;-82
2021/12/04 15:00:42;;;;;;;10.07;7.63;;;;;;;;;;5106174;27;20403;-83
2021/12/04 15:03:12;;;;;;;11.50;7.43;;;;;;;;;;5114055;27;20417;-82
2021/12/04 15:05:41;;;;;;;9.77;7.43;;;;;;;;;;5101907;27;20401;-90
2021/12/04 15:08:11;;;;;;;16.85;7.47;;;;;;;;;;5106974;27;20437;-77
2021/12/04 15:10:38;;;;;;;9.23;7.13;;;;;;;;;;5108092;27;20401;-77
2021/12/04 15:13:07;;;;;;;10.07;7.63;;;;;;;;;;5104691;28;20390;-79
2021/12/04 15:15:37;;;;;;;8.32;6.90;;;;;;;;;;5117602;27;20474;-81
2021/12/04 15:18:09;;;;;;;11.75;7.30;;;;;;;;;;5106159;27;20393;-79
2021/12/04 15:20:42;;;;;;;7.65;6.57;;;;;;;;;;5106016;27;20478;-82
2021/12/04 15:23:13;;;;;;;7.68;6.35;;;;;;;;;;5107710;27;21043;-79
2021/12/04 15:25:41;;;;;;;7.05;5.70;;;;;;;;;;5111683;27;20433;-81
2021/12/04 15:29:46;;;;;;;8.63;6.60;;;;;;;;;;5123542;27;20942;-80
2021/12/04 15:35:00;;;;;;;12.93;6.37;;;;;;;;;;5121286;27;20367;-81
2021/12/04 15:37:32;;;;;;;7.97;6.07;;;;;;;;;;5128290;27;20880;-84
2021/12/04 15:40:00;;;;;;;6.80;5.90;;;;;;;;;;5125486;27;20433;-80
2021/12/04 15:42:30;;;;;;;7.97;6.18;;;;;;;;;;5128018;27;20424;-78
2021/12/04 15:45:13;;;;;;;9.50;6.50;;;;;;;;;;5122085;27;20407;-82
2021/12/04 15:47:45;;;;;;;9.40;7.20;;;;;;;;;;5125379;27;20402;-84
2021/12/04 15:53:07;;;;;;;9.38;7.30;;;;;;;;;;5098850;27;20491;-84
2021/12/04 15:55:38;;;;;;;10.75;7.93;;;;;;;;;;5129747;27;20865;-83
2021/12/04 15:58:09;;;;;;;11.17;8.00;;;;;;;;;;5118527;27;20942;-83
2021/12/04 16:00:39;;;;;;;10.98;8.40;;;;;;;;;;5121392;27;20754;-80
2021/12/04 16:03:09;;;;;;;10.35;8.45;;;;;;;;;;5122970;27;20394;-83
2021/12/04 16:05:41;;;;;;;11.43;8.50;;;;;;;;;;5123459;27;20406;-82
2021/12/04 16:08:12;;;;;;;10.95;8.13;;;;;;;;;;5121228;27;20413;-83
2021/12/04 16:10:40;;;;;;;9.15;7.57;;;;;;;;;;5121916;27;21033;-82
2021/12/04 16:13:09;;;;;;;9.70;7.78;;;;;;;;;;5120743;27;20406;-83
2021/12/04 16:15:36;;;;;;;10.73;8.40;;;;;;;;;;5118849;27;20410;-83
2021/12/04 16:18:05;;;;;;;10.07;8.20;;;;;;;;;;5112459;27;20409;-83
2021/12/04 16:20:32;;;;;;;12.88;9.50;;;;;;;;;;5116042;27;20402;-81
2021/12/04 16:23:02;;;;;;;11.30;8.82;;;;;;;;;;5116648;27;20417;-81
2021/12/04 16:25:35;;;;;;;12.65;9.02;;;;;;;;;;5124532;27;20942;-82
2021/12/04 16:28:08;;;;;;;11.90;8.98;;;;;;;;;;5118197;27;21056;-82
2021/12/04 16:30:48;;;;;;;11.07;8.88;;;;;;;;;;5120519;27;20394;-82
2021/12/04 16:33:29;;;;;;;16.35;11.48;;;;;;;;;;5117016;27;20495;-82
2021/12/04 16:36:03;;;;;;;11.90;8.43;;;;;;;;;;5117466;27;20422;-81
2021/12/04 16:38:32;;;;;;;12.75;9.18;;;;;;;;;;5121157;27;20455;-82
2021/12/04 16:41:04;;;;;;;12.30;8.57;;;;;;;;;;5123182;27;20794;-81
2021/12/04 16:43:33;;;;;;;10.98;8.35;;;;;;;;;;5118180;27;20418;-81
2021/12/04 16:46:02;;;;;;;10.93;7.93;;;;;;;;;;5103815;27;20410;-82
2021/12/04 16:48:35;;;;;;;14.05;9.73;;;;;;;;;;5105557;27;20803;-81
2021/12/04 16:57:02;;;;;;;11.68;8.60;;;;;;;;;;5104858;27;20393;-81
2021/12/04 16:59:29;;;;;;;11.82;7.40;;;;;;;;;;5106726;27;20742;-81
2021/12/04 17:01:59;;;;;;;9.93;7.30;;;;;;;;;;5100649;27;20866;-82
2021/12/04 17:04:26;;;;;;;9.75;7.35;;;;;;;;;;5099868;27;20909;-81
2021/12/04 17:06:57;;;;;;;8.93;7.20;;;;;;;;;;5107989;27;20569;-82
2021/12/04 17:09:26;;;;;;;9.93;7.30;;;;;;;;;;5100710;27;20399;-81
2021/12/04 17:11:54;;;;;;;9.43;7.53;;;;;;;;;;5102623;27;20483;-81
2021/12/04 17:14:21;;;;;;;10.25;7.70;;;;;;;;;;5097671;27;20412;-82
2021/12/04 17:16:49;;;;;;;9.77;7.88;;;;;;;;;;5096440;27;20517;-82
2021/12/04 17:19:16;;;;;;;11.02;7.47;;;;;;;;;;5096201;27;20397;-81